Ashcamp, Kentucky
Current Conditions -  °F | °C
As of 6:15 AM on Tuesday 21 Oct 2014 (Local Time) from KLNP Reporting Station
Broken Clouds Broken Clouds  
Wind Chill: 46°   Ceiling: 1900
Heat Index: 48°   Visibility: 10mi
Dew Point: 48°   Wind: 6mph
Humidity: 100%   Direction: 250°WSW
Pressure: 29.97"   Gusts: NA
Location:  37.27°N, 82.43°W
Report Text: KLNP 211015Z AUTO 25005KT 10SM SCT015 BKN019 BKN023 09/09 A2997 RMK AO2
Loading
Personal Weather Stations






























Interactive Weather Map
Tropical Storm Tracking
New forecast layout! Learn more

10-Day Weather Forecast

Advertisements
Track Severe Weather on mobile